sensor_id;sensor_type;location;lat;lon;timestamp;pressure;altitude;pressure_sealevel;temperature;humidity
73674;BME280;61975;48.660;10.164;2023-08-01T00:00:31;94780.47;;;18.28;100.00
73674;BME280;61975;48.660;10.164;2023-08-01T00:02:56;94777.22;;;18.30;100.00
73674;BME280;61975;48.660;10.164;2023-08-01T00:05:22;94778.47;;;18.29;100.00
73674;BME280;61975;48.660;10.164;2023-08-01T00:07:47;94779.81;;;18.24;100.00
73674;BME280;61975;48.660;10.164;2023-08-01T00:10:12;94765.31;;;18.26;100.00
73674;BME280;61975;48.660;10.164;2023-08-01T00:12:38;94764.66;;;18.22;100.00
73674;BME280;61975;48.660;10.164;2023-08-01T00:15:04;94757.00;;;18.22;100.00
73674;BME280;61975;48.660;10.164;2023-08-01T00:17:29;94737.78;;;18.21;100.00
73674;BME280;61975;48.660;10.164;2023-08-01T00:19:55;94735.78;;;18.21;100.00
73674;BME280;61975;48.660;10.164;2023-08-01T00:22:20;94738.13;;;18.23;100.00
73674;BME280;61975;48.660;10.164;2023-08-01T00:24:46;94736.63;;;18.09;100.00
73674;BME280;61975;48.660;10.164;2023-08-01T00:27:14;94745.81;;;18.10;100.00
73674;BME280;61975;48.660;10.164;2023-08-01T00:29:40;94745.69;;;18.13;100.00
73674;BME280;61975;48.660;10.164;2023-08-01T00:32:06;94746.47;;;18.14;100.00
73674;BME280;61975;48.660;10.164;2023-08-01T00:34:31;94743.66;;;18.14;100.00
73674;BME280;61975;48.660;10.164;2023-08-01T00:36:57;94732.75;;;18.16;100.00
73674;BME280;61975;48.660;10.164;2023-08-01T00:39:23;94729.75;;;18.10;100.00
73674;BME280;61975;48.660;10.164;2023-08-01T00:41:49;94725.69;;;18.11;100.00
73674;BME280;61975;48.660;10.164;2023-08-01T00:44:14;94725.69;;;18.11;100.00
73674;BME280;61975;48.660;10.164;2023-08-01T00:46:39;94724.91;;;18.11;100.00
73674;BME280;61975;48.660;10.164;2023-08-01T00:49:05;94718.50;;;18.10;100.00
73674;BME280;61975;48.660;10.164;2023-08-01T00:51:31;94715.25;;;18.12;100.00
73674;BME280;61975;48.660;10.164;2023-08-01T00:53:57;94711.34;;;18.09;100.00
73674;BME280;61975;48.660;10.164;2023-08-01T00:56:24;94707.28;;;18.10;100.00
73674;BME280;61975;48.660;10.164;2023-08-01T00:58:49;94709.28;;;18.10;100.00
73674;BME280;61975;48.660;10.164;2023-08-01T01:01:14;94700.09;;;18.09;100.00
73674;BME280;61975;48.660;10.164;2023-08-01T01:03:40;94700.56;;;18.08;100.00
73674;BME280;61975;48.660;10.164;2023-08-01T01:06:14;94695.69;;;18.08;100.00
73674;BME280;61975;48.660;10.164;2023-08-01T01:08:42;94694.59;;;18.06;100.00
73674;BME280;61975;48.660;10.164;2023-08-01T01:11:08;94683.69;;;18.08;100.00
73674;BME280;61975;48.660;10.164;2023-08-01T01:13:33;94675.38;;;18.04;100.00
73674;BME280;61975;48.660;10.164;2023-08-01T01:15:59;94658.41;;;18.08;100.00
73674;BME280;61975;48.660;10.164;2023-08-01T01:18:24;94656.38;;;18.08;100.00
73674;BME280;61975;48.660;10.164;2023-08-01T01:20:49;94655.59;;;18.08;100.00
73674;BME280;61975;48.660;10.164;2023-08-01T01:23:16;94653.56;;;18.08;100.00
73674;BME280;61975;48.660;10.164;2023-08-01T01:25:42;94642.34;;;18.08;100.00
73674;BME280;61975;48.660;10.164;2023-08-01T01:28:08;94628.75;;;18.07;100.00
73674;BME280;61975;48.660;10.164;2023-08-01T01:30:33;94626.72;;;18.07;100.00
73674;BME280;61975;48.660;10.164;2023-08-01T01:33:00;94620.31;;;18.07;100.00
73674;BME280;61975;48.660;10.164;2023-08-01T01:35:26;94612.69;;;18.07;100.00
73674;BME280;61975;48.660;10.164;2023-08-01T01:37:51;94622.38;;;18.06;100.00
73674;BME280;61975;48.660;10.164;2023-08-01T01:40:16;94610.34;;;18.06;100.00
73674;BME280;61975;48.660;10.164;2023-08-01T01:42:42;94614.03;;;18.03;100.00
73674;BME280;61975;48.660;10.164;2023-08-01T01:45:08;94607.19;;;18.04;100.00
73674;BME280;61975;48.660;10.164;2023-08-01T01:47:33;94608.44;;;18.03;100.00
73674;BME280;61975;48.660;10.164;2023-08-01T01:49:58;94605.97;;;18.05;100.00
73674;BME280;61975;48.660;10.164;2023-08-01T01:52:24;94604.84;;;18.02;100.00
73674;BME280;61975;48.660;10.164;2023-08-01T01:54:49;94606.88;;;18.02;100.00
73674;BME280;61975;48.660;10.164;2023-08-01T01:57:15;94594.06;;;18.01;100.00
73674;BME280;61975;48.660;10.164;2023-08-01T01:59:40;94603.06;;;17.96;100.00
73674;BME280;61975;48.660;10.164;2023-08-01T02:02:05;94589.38;;;17.98;100.00
73674;BME280;61975;48.660;10.164;2023-08-01T02:04:31;94577.81;;;17.96;100.00
73674;BME280;61975;48.660;10.164;2023-08-01T02:06:56;94577.94;;;17.92;100.00
73674;BME280;61975;48.660;10.164;2023-08-01T02:09:22;94583.66;;;17.89;100.00
73674;BME280;61975;48.660;10.164;2023-08-01T02:11:47;94590.09;;;17.89;100.00
73674;BME280;61975;48.660;10.164;2023-08-01T02:14:13;94588.03;;;17.90;100.00
73674;BME280;61975;48.660;10.164;2023-08-01T02:16:39;94586.47;;;17.89;100.00
73674;BME280;61975;48.660;10.164;2023-08-01T02:19:04;94590.09;;;17.89;100.00
73674;BME280;61975;48.660;10.164;2023-08-01T02:21:30;94594.25;;;17.85;100.00
73674;BME280;61975;48.660;10.164;2023-08-01T02:23:55;94593.00;;;17.86;100.00
73674;BME280;61975;48.660;10.164;2023-08-01T02:26:20;94578.50;;;17.87;100.00
73674;BME280;61975;48.660;10.164;2023-08-01T02:28:48;94574.94;;;17.87;100.00
73674;BME280;61975;48.660;10.164;2023-08-01T02:31:13;94578.31;;;17.82;100.00
73674;BME280;61975;48.660;10.164;2023-08-01T02:33:39;94579.09;;;17.82;100.00
73674;BME280;61975;48.660;10.164;2023-08-01T02:36:04;94581.47;;;17.84;100.00
73674;BME280;61975;48.660;10.164;2023-08-01T02:38:29;94580.66;;;17.83;100.00
73674;BME280;61975;48.660;10.164;2023-08-01T02:40:55;94569.44;;;17.83;100.00
73674;BME280;61975;48.660;10.164;2023-08-01T02:43:20;94579.09;;;17.82;100.00
73674;BME280;61975;48.660;10.164;2023-08-01T02:45:45;94555.06;;;17.81;100.00
73674;BME280;61975;48.660;10.164;2023-08-01T02:48:11;94556.75;;;17.79;100.00
73674;BME280;61975;48.660;10.164;2023-08-01T02:50:36;94551.47;;;17.81;100.00
73674;BME280;61975;48.660;10.164;2023-08-01T02:53:02;94543.06;;;17.81;100.00
73674;BME280;61975;48.660;10.164;2023-08-01T02:55:27;94549.44;;;17.81;100.00
73674;BME280;61975;48.660;10.164;2023-08-01T02:57:52;94547.88;;;17.80;100.00
73674;BME280;61975;48.660;10.164;2023-08-01T03:00:18;94549.59;;;17.78;100.00
73674;BME280;61975;48.660;10.164;2023-08-01T03:02:43;94542.41;;;17.77;100.00
73674;BME280;61975;48.660;10.164;2023-08-01T03:05:09;94545.22;;;17.77;100.00
73674;BME280;61975;48.660;10.164;2023-08-01T03:07:35;94534.44;;;17.75;100.00
73674;BME280;61975;48.660;10.164;2023-08-01T03:10:00;94532.09;;;17.74;100.00
73674;BME280;61975;48.660;10.164;2023-08-01T03:12:26;94529.75;;;17.72;100.00
73674;BME280;61975;48.660;10.164;2023-08-01T03:14:52;94521.78;;;17.71;100.00
73674;BME280;61975;48.660;10.164;2023-08-01T03:17:17;94508.97;;;17.70;100.00
73674;BME280;61975;48.660;10.164;2023-08-01T03:19:43;94520.66;;;17.68;100.00
73674;BME280;61975;48.660;10.164;2023-08-01T03:22:09;94518.31;;;17.67;100.00
73674;BME280;61975;48.660;10.164;2023-08-01T03:24:34;94518.13;;;17.61;100.00
73674;BME280;61975;48.660;10.164;2023-08-01T03:27:00;94513.59;;;17.64;100.00
73674;BME280;61975;48.660;10.164;2023-08-01T03:29:25;94518.88;;;17.62;100.00
73674;BME280;61975;48.660;10.164;2023-08-01T03:31:51;94527.44;;;17.58;100.00
73674;BME280;61975;48.660;10.164;2023-08-01T03:34:16;94518.88;;;17.62;100.00
73674;BME280;61975;48.660;10.164;2023-08-01T03:36:41;94523.38;;;17.59;100.00
73674;BME280;61975;48.660;10.164;2023-08-01T03:39:07;94526.84;;;17.63;100.00
73674;BME280;61975;48.660;10.164;2023-08-01T03:41:35;94518.13;;;17.61;100.00
73674;BME280;61975;48.660;10.164;2023-08-01T03:44:00;94521.47;;;17.56;100.00
73674;BME280;61975;48.660;10.164;2023-08-01T03:46:26;94516.97;;;17.59;100.00
73674;BME280;61975;48.660;10.164;2023-08-01T03:48:51;94513.59;;;17.64;100.00
73674;BME280;61975;48.660;10.164;2023-08-01T03:51:16;94510.81;;;17.64;100.00
73674;BME280;61975;48.660;10.164;2023-08-01T03:53:44;94503.19;;;17.64;100.00
73674;BME280;61975;48.660;10.164;2023-08-01T03:56:10;94504.28;;;17.67;100.00
73674;BME280;61975;48.660;10.164;2023-08-01T03:58:36;94491.47;;;17.66;100.00
73674;BME280;61975;48.660;10.164;2023-08-01T04:01:01;94502.38;;;17.64;100.00
73674;BME280;61975;48.660;10.164;2023-08-01T04:03:27;94504.28;;;17.67;100.00
73674;BME280;61975;48.660;10.164;2023-08-01T04:05:52;94500.22;;;17.68;100.00
73674;BME280;61975;48.660;10.164;2023-08-01T04:08:17;94493.06;;;17.67;100.00
73674;BME280;61975;48.660;10.164;2023-08-01T04:10:43;94495.41;;;17.68;100.00
73674;BME280;61975;48.660;10.164;2023-08-01T04:13:08;94503.81;;;17.68;100.00
73674;BME280;61975;48.660;10.164;2023-08-01T04:15:34;94510.66;;;17.67;100.00
73674;BME280;61975;48.660;10.164;2023-08-01T04:17:59;94515.38;;;17.70;100.00
73674;BME280;61975;48.660;10.164;2023-08-01T04:20:24;94516.47;;;17.73;100.00
73674;BME280;61975;48.660;10.164;2023-08-01T04:22:50;94518.16;;;17.70;100.00
73674;BME280;61975;48.660;10.164;2023-08-01T04:25:15;94514.59;;;17.70;100.00
73674;BME280;61975;48.660;10.164;2023-08-01T04:27:41;94516.94;;;17.71;100.00
73674;BME280;61975;48.660;10.164;2023-08-01T04:30:07;94518.97;;;17.71;100.00
73674;BME280;61975;48.660;10.164;2023-08-01T04:32:32;94528.53;;;17.61;100.00
73674;BME280;61975;48.660;10.164;2023-08-01T04:34:57;94533.91;;;17.68;100.00
73674;BME280;61975;48.660;10.164;2023-08-01T04:37:23;94533.38;;;17.60;100.00
73674;BME280;61975;48.660;10.164;2023-08-01T04:39:48;94528.53;;;17.61;100.00
73674;BME280;61975;48.660;10.164;2023-08-01T04:42:14;94527.00;;;17.60;100.00
73674;BME280;61975;48.660;10.164;2023-08-01T04:44:39;94526.06;;;17.63;100.00
73674;BME280;61975;48.660;10.164;2023-08-01T04:47:05;94518.63;;;17.47;100.00
73674;BME280;61975;48.660;10.164;2023-08-01T04:49:30;94529.88;;;17.22;100.00
73674;BME280;61975;48.660;10.164;2023-08-01T04:51:56;94528.19;;;17.25;100.00
73674;BME280;61975;48.660;10.164;2023-08-01T04:54:21;94517.25;;;17.39;100.00
73674;BME280;61975;48.660;10.164;2023-08-01T04:56:46;94507.41;;;17.47;100.00
73674;BME280;61975;48.660;10.164;2023-08-01T04:59:12;94493.56;;;17.53;100.00
73674;BME280;61975;48.660;10.164;2023-08-01T05:01:37;94477.63;;;17.50;100.00
73674;BME280;61975;48.660;10.164;2023-08-01T05:04:03;94477.50;;;17.53;100.00
73674;BME280;61975;48.660;10.164;2023-08-01T05:06:28;94463.34;;;17.57;100.00
73674;BME280;61975;48.660;10.164;2023-08-01T05:08:54;94447.63;;;17.59;100.00
73674;BME280;61975;48.660;10.164;2023-08-01T05:11:19;94436.38;;;17.59;100.00
73674;BME280;61975;48.660;10.164;2023-08-01T05:13:45;94407.53;;;17.59;100.00
73674;BME280;61975;48.660;10.164;2023-08-01T05:16:10;94404.72;;;17.59;100.00
73674;BME280;61975;48.660;10.164;2023-08-01T05:18:36;94410.28;;;17.50;100.00
73674;BME280;61975;48.660;10.164;2023-08-01T05:21:01;94402.78;;;17.47;100.00
73674;BME280;61975;48.660;10.164;2023-08-01T05:23:26;94400.97;;;17.53;100.00
73674;BME280;61975;48.660;10.164;2023-08-01T05:25:52;94395.63;;;17.46;100.00
73674;BME280;61975;48.660;10.164;2023-08-01T05:28:17;94382.69;;;17.48;100.00
73674;BME280;61975;48.660;10.164;2023-08-01T05:30:42;94388.88;;;17.43;100.00
73674;BME280;61975;48.660;10.164;2023-08-01T05:33:08;94380.25;;;17.38;100.00
73674;BME280;61975;48.660;10.164;2023-08-01T05:35:33;94379.31;;;17.41;100.00
73674;BME280;61975;48.660;10.164;2023-08-01T05:37:58;94387.19;;;17.46;100.00
73674;BME280;61975;48.660;10.164;2023-08-01T05:40:25;94399.53;;;17.48;100.00
73674;BME280;61975;48.660;10.164;2023-08-01T05:42:50;94405.13;;;17.48;100.00
73674;BME280;61975;48.660;10.164;2023-08-01T05:45:15;94397.50;;;17.49;100.00
73674;BME280;61975;48.660;10.164;2023-08-01T05:47:41;94402.97;;;17.52;100.00
73674;BME280;61975;48.660;10.164;2023-08-01T05:50:07;94402.88;;;17.56;100.00
73674;BME280;61975;48.660;10.164;2023-08-01T05:52:33;94415.50;;;17.60;100.00
73674;BME280;61975;48.660;10.164;2023-08-01T05:55:01;94420.34;;;17.60;100.00
73674;BME280;61975;48.660;10.164;2023-08-01T05:57:27;94425.03;;;17.63;100.00
73674;BME280;61975;48.660;10.164;2023-08-01T05:59:52;94424.59;;;17.64;100.00
73674;BME280;61975;48.660;10.164;2023-08-01T06:02:18;94446.78;;;17.71;100.00
73674;BME280;61975;48.660;10.164;2023-08-01T06:04:44;94452.13;;;17.78;100.00
73674;BME280;61975;48.660;10.164;2023-08-01T06:07:09;94447.00;;;17.86;100.00
73674;BME280;61975;48.660;10.164;2023-08-01T06:09:34;94436.22;;;17.84;100.00
73674;BME280;61975;48.660;10.164;2023-08-01T06:12:00;94439.22;;;17.90;100.00
73674;BME280;61975;48.660;10.164;2023-08-01T06:14:25;94427.09;;;17.93;100.00
73674;BME280;61975;48.660;10.164;2023-08-01T06:16:51;94430.22;;;17.95;100.00
73674;BME280;61975;48.660;10.164;2023-08-01T06:19:16;94431.13;;;17.92;100.00
73674;BME280;61975;48.660;10.164;2023-08-01T06:21:41;94428.25;;;18.04;100.00
73674;BME280;61975;48.660;10.164;2023-08-01T06:24:07;94420.78;;;18.10;100.00
73674;BME280;61975;48.660;10.164;2023-08-01T06:26:33;94439.84;;;18.15;100.00
73674;BME280;61975;48.660;10.164;2023-08-01T06:28:59;94431.59;;;18.21;100.00
73674;BME280;61975;48.660;10.164;2023-08-01T06:31:24;94411.34;;;18.26;100.00
73674;BME280;61975;48.660;10.164;2023-08-01T06:33:50;94412.59;;;18.25;100.00
73674;BME280;61975;48.660;10.164;2023-08-01T06:36:15;94428.97;;;18.26;100.00
73674;BME280;61975;48.660;10.164;2023-08-01T06:38:42;94436.94;;;18.28;100.00
73674;BME280;61975;48.660;10.164;2023-08-01T06:41:07;94421.03;;;18.25;100.00
73674;BME280;61975;48.660;10.164;2023-08-01T06:43:33;94421.31;;;18.18;100.00
73674;BME280;61975;48.660;10.164;2023-08-01T06:45:58;94422.25;;;18.24;100.00
73674;BME280;61975;48.660;10.164;2023-08-01T06:48:23;94410.72;;;18.22;100.00
73674;BME280;61975;48.660;10.164;2023-08-01T06:50:49;94410.72;;;18.22;100.00
73674;BME280;61975;48.660;10.164;2023-08-01T06:53:14;94412.25;;;18.23;100.00
73674;BME280;61975;48.660;10.164;2023-08-01T06:55:39;94396.03;;;18.18;100.00
73674;BME280;61975;48.660;10.164;2023-08-01T06:58:05;94400.97;;;18.14;100.00
73674;BME280;61975;48.660;10.164;2023-08-01T07:00:31;94403.16;;;18.10;100.00
73674;BME280;61975;48.660;10.164;2023-08-01T07:02:57;94399.09;;;18.11;100.00
73674;BME280;61975;48.660;10.164;2023-08-01T07:05:22;94406.59;;;18.14;100.00
73674;BME280;61975;48.660;10.164;2023-08-01T07:07:48;94421.09;;;18.12;100.00
73674;BME280;61975;48.660;10.164;2023-08-01T07:10:14;94422.50;;;18.08;100.00
73674;BME280;61975;48.660;10.164;2023-08-01T07:12:39;94436.53;;;18.08;100.00
73674;BME280;61975;48.660;10.164;2023-08-01T07:15:06;94434.03;;;18.10;100.00
73674;BME280;61975;48.660;10.164;2023-08-01T07:17:31;94423.91;;;18.12;100.00
73674;BME280;61975;48.660;10.164;2023-08-01T07:19:57;94423.44;;;18.14;100.00
73674;BME280;61975;48.660;10.164;2023-08-01T07:22:22;94425.03;;;18.15;100.00
73674;BME280;61975;48.660;10.164;2023-08-01T07:24:52;94431.28;;;18.19;100.00
73674;BME280;61975;48.660;10.164;2023-08-01T07:27:18;94442.19;;;18.17;100.00
73674;BME280;61975;48.660;10.164;2023-08-01T07:29:43;94450.94;;;18.19;100.00
73674;BME280;61975;48.660;10.164;2023-08-01T07:32:08;94461.56;;;18.24;100.00
73674;BME280;61975;48.660;10.164;2023-08-01T07:34:34;94451.59;;;18.23;100.00
73674;BME280;61975;48.660;10.164;2023-08-01T07:36:59;94456.09;;;18.20;100.00
73674;BME280;61975;48.660;10.164;2023-08-01T07:39:24;94453.16;;;18.24;100.00
73674;BME280;61975;48.660;10.164;2023-08-01T07:41:50;94455.38;;;18.29;100.00
73674;BME280;61975;48.660;10.164;2023-08-01T07:44:15;94448.50;;;18.30;100.00
73674;BME280;61975;48.660;10.164;2023-08-01T07:46:40;94453.97;;;18.33;100.00
73674;BME280;61975;48.660;10.164;2023-08-01T07:49:06;94463.19;;;18.34;100.00
73674;BME280;61975;48.660;10.164;2023-08-01T07:51:31;94461.63;;;18.33;100.00
73674;BME280;61975;48.660;10.164;2023-08-01T07:53:58;94455.44;;;18.38;100.00
73674;BME280;61975;48.660;10.164;2023-08-01T07:56:24;94449.22;;;18.43;100.00
73674;BME280;61975;48.660;10.164;2023-08-01T07:58:49;94445.31;;;18.49;100.00
73674;BME280;61975;48.660;10.164;2023-08-01T08:01:15;94448.66;;;18.57;100.00
73674;BME280;61975;48.660;10.164;2023-08-01T08:03:40;94454.75;;;18.64;100.00
73674;BME280;61975;48.660;10.164;2023-08-01T08:06:05;94451.63;;;18.71;100.00
73674;BME280;61975;48.660;10.164;2023-08-01T08:08:31;94459.16;;;18.74;100.00
73674;BME280;61975;48.660;10.164;2023-08-01T08:11:02;94454.94;;;18.79;100.00
73674;BME280;61975;48.660;10.164;2023-08-01T08:13:27;94460.56;;;18.79;100.00
73674;BME280;61975;48.660;10.164;2023-08-01T08:15:55;94456.22;;;18.78;100.00
73674;BME280;61975;48.660;10.164;2023-08-01T08:18:22;94461.16;;;18.65;100.00
73674;BME280;61975;48.660;10.164;2023-08-01T08:20:47;94464.31;;;18.67;100.00
73674;BME280;61975;48.660;10.164;2023-08-01T08:23:13;94463.38;;;18.70;100.00
73674;BME280;61975;48.660;10.164;2023-08-01T08:25:42;94466.50;;;18.72;100.00
73674;BME280;61975;48.660;10.164;2023-08-01T08:28:11;94470.22;;;18.60;100.00
73674;BME280;61975;48.660;10.164;2023-08-01T08:30:36;94467.69;;;18.62;100.00
73674;BME280;61975;48.660;10.164;2023-08-01T08:33:03;94475.94;;;18.47;100.00
73674;BME280;61975;48.660;10.164;2023-08-01T08:35:35;94480.13;;;18.43;100.00
73674;BME280;61975;48.660;10.164;2023-08-01T08:38:02;94472.88;;;18.33;100.00
73674;BME280;61975;48.660;10.164;2023-08-01T08:40:31;94489.63;;;18.15;100.00
73674;BME280;61975;48.660;10.164;2023-08-01T08:43:01;94491.84;;;18.20;100.00
73674;BME280;61975;48.660;10.164;2023-08-01T08:45:29;94497.34;;;18.02;100.00
73674;BME280;61975;48.660;10.164;2023-08-01T08:47:59;94499.44;;;17.89;100.00
73674;BME280;61975;48.660;10.164;2023-08-01T08:50:26;94494.75;;;17.86;100.00
73674;BME280;61975;48.660;10.164;2023-08-01T08:52:52;94491.34;;;17.91;100.00
73674;BME280;61975;48.660;10.164;2023-08-01T08:55:18;94481.16;;;17.84;100.00
73674;BME280;61975;48.660;10.164;2023-08-01T08:57:49;94489.38;;;17.79;100.00
73674;BME280;61975;48.660;10.164;2023-08-01T09:00:17;94471.09;;;17.74;100.00
73674;BME280;61975;48.660;10.164;2023-08-01T09:02:42;94461.31;;;17.79;100.00
73674;BME280;61975;48.660;10.164;2023-08-01T09:05:08;94452.13;;;17.78;100.00
73674;BME280;61975;48.660;10.164;2023-08-01T09:07:38;94461.66;;;17.81;100.00
73674;BME280;61975;48.660;10.164;2023-08-01T09:10:04;94468.81;;;17.82;100.00
73674;BME280;61975;48.660;10.164;2023-08-01T09:12:34;94472.72;;;17.84;100.00
73674;BME280;61975;48.660;10.164;2023-08-01T09:14:59;94482.28;;;17.87;100.00
73674;BME280;61975;48.660;10.164;2023-08-01T09:17:24;94482.59;;;17.89;100.00
73674;BME280;61975;48.660;10.164;2023-08-01T09:19:55;94490.56;;;17.90;100.00
73674;BME280;61975;48.660;10.164;2023-08-01T09:22:21;94488.84;;;17.93;100.00
73674;BME280;61975;48.660;10.164;2023-08-01T09:24:51;94479.22;;;17.94;100.00
73674;BME280;61975;48.660;10.164;2023-08-01T09:27:16;94471.09;;;17.96;100.00
73674;BME280;61975;48.660;10.164;2023-08-01T09:29:42;94469.84;;;17.97;100.00
73674;BME280;61975;48.660;10.164;2023-08-01T09:32:14;94469.38;;;17.98;100.00
73674;BME280;61975;48.660;10.164;2023-08-01T09:34:41;94456.78;;;18.03;100.00
73674;BME280;61975;48.660;10.164;2023-08-01T09:37:06;94458.22;;;18.07;100.00
73674;BME280;61975;48.660;10.164;2023-08-01T09:39:32;94452.00;;;18.12;100.00
73674;BME280;61975;48.660;10.164;2023-08-01T09:41:59;94435.66;;;18.20;100.00
73674;BME280;61975;48.660;10.164;2023-08-01T09:44:26;94440.28;;;18.05;100.00
73674;BME280;61975;48.660;10.164;2023-08-01T09:49:22;94445.63;;;18.21;100.00
73674;BME280;61975;48.660;10.164;2023-08-01T09:51:49;94444.03;;;18.11;100.00
73674;BME280;61975;48.660;10.164;2023-08-01T09:54:15;94452.25;;;18.05;100.00
73674;BME280;61975;48.660;10.164;2023-08-01T09:56:44;94461.09;;;18.16;100.00
73674;BME280;61975;48.660;10.164;2023-08-01T09:59:10;94463.38;;;18.09;100.00
73674;BME280;61975;48.660;10.164;2023-08-01T10:01:38;94447.88;;;18.26;100.00
73674;BME280;61975;48.660;10.164;2023-08-01T10:04:07;94455.44;;;18.38;100.00
73674;BME280;61975;48.660;10.164;2023-08-01T10:06:35;94469.47;;;18.38;100.00
73674;BME280;61975;48.660;10.164;2023-08-01T10:09:02;94461.69;;;18.42;100.00
73674;BME280;61975;48.660;10.164;2023-08-01T10:11:29;94470.28;;;18.38;100.00
73674;BME280;61975;48.660;10.164;2023-08-01T10:13:55;94465.16;;;18.46;100.00
73674;BME280;61975;48.660;10.164;2023-08-01T10:16:21;94461.13;;;18.56;100.00
73674;BME280;61975;48.660;10.164;2023-08-01T10:18:47;94463.69;;;18.72;100.00
73674;BME280;61975;48.660;10.164;2023-08-01T10:21:16;94465.09;;;18.76;100.00
73674;BME280;61975;48.660;10.164;2023-08-01T10:23:44;94471.19;;;18.75;100.00
73674;BME280;61975;48.660;10.164;2023-08-01T10:26:11;94464.66;;;18.87;100.00
73674;BME280;61975;48.660;10.164;2023-08-01T10:28:38;94472.94;;;18.90;100.00
73674;BME280;61975;48.660;10.164;2023-08-01T10:31:14;94468.59;;;18.98;100.00
73674;BME280;61975;48.660;10.164;2023-08-01T10:33:41;94470.63;;;18.98;100.00
73674;BME280;61975;48.660;10.164;2023-08-01T10:36:14;94477.66;;;19.02;100.00
73674;BME280;61975;48.660;10.164;2023-08-01T10:38:51;94483.13;;;18.97;100.00
73674;BME280;61975;48.660;10.164;2023-08-01T10:43:45;94503.03;;;18.63;100.00
73674;BME280;61975;48.660;10.164;2023-08-01T10:46:10;94493.03;;;18.10;100.00
73674;BME280;61975;48.660;10.164;2023-08-01T10:48:51;94491.94;;;17.86;100.00
73674;BME280;61975;48.660;10.164;2023-08-01T10:51:17;94487.38;;;18.01;100.00
73674;BME280;61975;48.660;10.164;2023-08-01T10:53:42;94490.53;;;18.12;100.00
73674;BME280;61975;48.660;10.164;2023-08-01T10:56:15;94469.25;;;18.23;100.00
73674;BME280;61975;48.660;10.164;2023-08-01T10:58:41;94472.78;;;18.15;100.00
73674;BME280;61975;48.660;10.164;2023-08-01T11:01:06;94475.56;;;18.36;100.00
73674;BME280;61975;48.660;10.164;2023-08-01T11:03:39;94464.91;;;18.31;100.00
73674;BME280;61975;48.660;10.164;2023-08-01T11:06:05;94472.91;;;18.42;100.00
73674;BME280;61975;48.660;10.164;2023-08-01T11:08:40;94482.22;;;18.30;100.00
73674;BME280;61975;48.660;10.164;2023-08-01T11:11:08;94482.44;;;18.35;100.00
73674;BME280;61975;48.660;10.164;2023-08-01T11:13:35;94490.84;;;18.14;100.00
73674;BME280;61975;48.660;10.164;2023-08-01T11:16:04;94491.72;;;18.02;100.00
73674;BME280;61975;48.660;10.164;2023-08-01T11:18:43;94488.13;;;18.01;100.00
73674;BME280;61975;48.660;10.164;2023-08-01T11:21:08;94493.66;;;18.14;100.00
73674;BME280;61975;48.660;10.164;2023-08-01T11:23:34;94499.81;;;18.00;100.00
73674;BME280;61975;48.660;10.164;2023-08-01T11:26:08;94499.69;;;17.82;100.00
73674;BME280;61975;48.660;10.164;2023-08-01T11:28:34;94507.75;;;17.92;100.00
73674;BME280;61975;48.660;10.164;2023-08-01T11:31:00;94506.03;;;17.95;100.00
73674;BME280;61975;48.660;10.164;2023-08-01T11:33:25;94502.97;;;18.02;100.00
73674;BME280;61975;48.660;10.164;2023-08-01T11:35:51;94494.13;;;18.12;100.00
73674;BME280;61975;48.660;10.164;2023-08-01T11:38:19;94476.53;;;18.21;100.00
73674;BME280;61975;48.660;10.164;2023-08-01T11:40:46;94480.97;;;18.31;100.00
73674;BME280;61975;48.660;10.164;2023-08-01T11:43:14;94480.31;;;18.48;100.00
73674;BME280;61975;48.660;10.164;2023-08-01T11:45:48;94477.03;;;18.50;100.00
73674;BME280;61975;48.660;10.164;2023-08-01T11:48:13;94479.56;;;18.66;100.00
73674;BME280;61975;48.660;10.164;2023-08-01T11:50:39;94472.75;;;18.76;100.00
73674;BME280;61975;48.660;10.164;2023-08-01T11:53:04;94477.78;;;18.81;100.00
73674;BME280;61975;48.660;10.164;2023-08-01T11:55:34;94472.31;;;18.86;100.00
73674;BME280;61975;48.660;10.164;2023-08-01T11:58:00;94468.41;;;18.93;100.00
73674;BME280;61975;48.660;10.164;2023-08-01T12:00:28;94465.97;;;19.13;100.00
73674;BME280;61975;48.660;10.164;2023-08-01T12:03:07;94472.59;;;19.37;100.00
73674;BME280;61975;48.660;10.164;2023-08-01T12:05:33;94480.13;;;19.67;100.00
73674;BME280;61975;48.660;10.164;2023-08-01T12:08:09;94468.53;;;19.74;100.00
73674;BME280;61975;48.660;10.164;2023-08-01T12:10:43;94477.56;;;19.87;100.00
73674;BME280;61975;48.660;10.164;2023-08-01T12:13:25;94489.63;;;20.06;100.00
73674;BME280;61975;48.660;10.164;2023-08-01T12:15:55;94514.06;;;20.18;100.00
73674;BME280;61975;48.660;10.164;2023-08-01T12:20:49;94486.97;;;19.93;100.00
73674;BME280;61975;48.660;10.164;2023-08-01T12:23:15;94484.78;;;20.06;100.00
73674;BME280;61975;48.660;10.164;2023-08-01T12:25:40;94482.59;;;20.19;100.00
73674;BME280;61975;48.660;10.164;2023-08-01T12:28:05;94479.72;;;20.28;100.00
73674;BME280;61975;48.660;10.164;2023-08-01T12:30:31;94480.38;;;20.23;99.39
73674;BME280;61975;48.660;10.164;2023-08-01T12:32:56;94483.22;;;20.14;100.00
73674;BME280;61975;48.660;10.164;2023-08-01T12:35:22;94476.78;;;20.23;100.00
73674;BME280;61975;48.660;10.164;2023-08-01T12:37:47;94483.03;;;20.00;93.92
73674;BME280;61975;48.660;10.164;2023-08-01T12:40:13;94476.66;;;19.72;91.22
73674;BME280;61975;48.660;10.164;2023-08-01T12:42:38;94490.59;;;19.67;94.58